Portada
METAR-TAF:

METAR-TAF

Aeroports :

Birmingham, Anglaterra

latitud: 52-27N, longitud: 001-44W, altitud: 99 m

Observació

L'informe es va fer fa 33 minuts, a les 15:50 UTC
Vent 7 kt del Est, variant entre Nord/Nord-Est i Est/Sud-Est
Temperatura 10°C
Humitat 43%
Pressió 1032 hPa
Visibilitat 10 km o més
sense núvols per sota de 1500 mi sense presència de cumulonimbus.

METAR: EGBB 151550Z 08007KT 020V110 CAVOK 10/M02 Q1032

Hora: 17:23 (16:23 UTC)

Pronòstic

L'informe es va fer fa 5 hores i 22 minuts, a les 11:01 UTC
Pronòstic vàlid del 15 a les 12 UTC al 16 a les 12 UTC
Vent 8 kt del Est
Visibilitat 10 km o més
Núvols disperses a una alçada de 3000 ft
Probabilitat 30%
l' 16 a les 03 UTC al 16 a les 08 UTC
Visibilitat: 8000 m

TAF: EGBB 151101Z 1512/1612 08008KT 9999 SCT030 PROB30 1603/1608 8000

Observacions i pronòstics meteorològics de més de 4000 aeroports (METAR i TAF).

Les estacions disponibles són els punts grocs i vermells al mapa.

Posi el ratolí al punt desitjat per veure el nom de l'estació.

Feu clic per veure les observacions i els pronòstics meteorològics.

Per canviar el mapa: feu clic els botons verds amb una creu de color negre per apropar; al botó verd amb un guió per allunyar la imatge; o en les fletxes verdes per a mapes adjacents.


METAR-TAF: